Time;durP1;ratioP1;P1;durP2;ratioP2;P2;SDS_P1;SDS_P2;PMS_P1;PMS_P2;Temp;Humidity;BMP_temperature;BMP_pressure;BME280_temperature;BME280_humidity;BME280_pressure;Samples;Min_cycle;Max_cycle;Signal;HPM_P1;HPM_P2
2021/12/19 00:00:38;;;;;;;;;;;20.40;43.80;;;;;;6261596;28;19990;-39
2021/12/19 00:03:59;;;;;;;;;;;20.00;43.60;;;;;;6260934;28;19936;-39
2021/12/19 00:10:17;;;;;;;;;;;20.90;44.00;;;;;;6260578;28;20530;-38
2021/12/19 00:13:18;;;;;;;;;;;20.20;43.70;;;;;;6260240;28;19960;-40
2021/12/19 00:16:20;;;;;;;;;;;20.10;43.70;;;;;;6264100;28;20715;-38
2021/12/19 00:19:22;;;;;;;;;;;20.30;43.70;;;;;;6263684;28;19978;-38
2021/12/19 00:22:24;;;;;;;;;;;20.10;43.70;;;;;;6245471;28;19925;-41
2021/12/19 00:25:25;;;;;;;;;;;20.00;43.70;;;;;;6258754;28;20039;-38
2021/12/19 00:28:26;;;;;;;;;;;21.00;44.20;;;;;;6260035;28;20010;-38
2021/12/19 00:31:28;;;;;;;;;;;20.50;44.00;;;;;;6257187;28;19932;-41
2021/12/19 00:34:30;;;;;;;;;;;20.20;43.80;;;;;;6254824;28;19963;-39
2021/12/19 00:37:31;;;;;;;;;;;20.20;43.80;;;;;;6264038;28;20043;-38
2021/12/19 00:40:33;;;;;;;;;;;20.80;44.10;;;;;;6266485;28;20599;-39
2021/12/19 00:43:36;;;;;;;;;;;20.20;43.70;;;;;;6254601;28;19935;-38
2021/12/19 00:46:45;;;;;;;;;;;20.00;44.10;;;;;;6260762;28;19929;-38
2021/12/19 00:49:53;;;;;;;;;;;20.10;43.70;;;;;;6264179;28;19930;-38
2021/12/19 00:53:14;;;;;;;;;;;20.50;43.90;;;;;;6253936;28;19932;-38
2021/12/19 00:56:15;;;;;;;;;;;20.30;43.90;;;;;;6262220;28;20200;-38
2021/12/19 00:59:18;;;;;;;;;;;20.10;43.70;;;;;;6242987;28;20605;-39
2021/12/19 01:02:20;;;;;;;;;;;20.50;43.90;;;;;;6265178;28;19963;-38
2021/12/19 01:05:23;;;;;;;;;;;20.00;43.70;;;;;;6264833;28;20409;-38
2021/12/19 01:08:24;;;;;;;;;;;20.30;43.90;;;;;;6265909;28;20216;-39
2021/12/19 01:11:25;;;;;;;;;;;20.50;44.10;;;;;;6262917;28;20051;-38
2021/12/19 01:14:27;;;;;;;;;;;19.80;43.70;;;;;;6268617;28;20754;-38
2021/12/19 01:17:28;;;;;;;;;;;20.00;43.80;;;;;;6269756;28;19995;-39
2021/12/19 01:20:32;;;;;;;;;;;20.20;43.80;;;;;;6265457;28;20745;-38
2021/12/19 01:23:33;;;;;;;;;;;20.00;43.80;;;;;;6267154;28;20027;-38
2021/12/19 01:26:35;;;;;;;;;;;20.30;43.70;;;;;;6265025;28;20031;-39
2021/12/19 01:29:36;;;;;;;;;;;20.10;43.90;;;;;;6268427;28;20015;-39
2021/12/19 01:32:37;;;;;;;;;;;20.00;43.70;;;;;;6267604;28;19993;-39
2021/12/19 01:35:39;;;;;;;;;;;20.00;43.80;;;;;;6267161;28;19935;-39
2021/12/19 01:38:41;;;;;;;;;;;20.10;43.80;;;;;;6270501;28;20435;-39
2021/12/19 01:41:46;;;;;;;;;;;20.70;44.10;;;;;;6266134;28;19974;-39
2021/12/19 01:44:48;;;;;;;;;;;20.20;43.70;;;;;;6233286;28;20920;-39
2021/12/19 01:47:49;;;;;;;;;;;19.90;43.80;;;;;;6268941;28;20536;-39
2021/12/19 01:50:51;;;;;;;;;;;20.20;44.00;;;;;;6249939;28;19925;-38
2021/12/19 01:53:53;;;;;;;;;;;19.90;43.80;;;;;;6250351;28;20039;-38
2021/12/19 01:56:54;;;;;;;;;;;20.30;43.90;;;;;;6267456;28;19975;-38
2021/12/19 01:59:56;;;;;;;;;;;20.40;44.10;;;;;;6265323;28;20042;-38
2021/12/19 02:02:57;;;;;;;;;;;20.40;43.70;;;;;;6245884;28;19924;-38
2021/12/19 02:06:00;;;;;;;;;;;20.20;43.90;;;;;;6265967;28;19963;-39
2021/12/19 02:09:05;;;;;;;;;;;20.20;43.90;;;;;;6267125;28;20073;-39
2021/12/19 02:12:07;;;;;;;;;;;20.60;44.30;;;;;;6263190;28;19928;-39
2021/12/19 02:15:09;;;;;;;;;;;20.00;43.80;;;;;;6262110;28;19928;-38
2021/12/19 02:18:12;;;;;;;;;;;19.90;43.80;;;;;;6264001;28;19935;-38
2021/12/19 02:21:16;;;;;;;;;;;19.70;43.60;;;;;;6263318;28;19967;-38
2021/12/19 02:24:17;;;;;;;;;;;20.00;43.70;;;;;;6263232;28;19970;-39
2021/12/19 02:27:24;;;;;;;;;;;20.10;43.80;;;;;;6257978;28;20469;-38
2021/12/19 02:30:26;;;;;;;;;;;20.50;44.10;;;;;;6251550;28;19971;-38
2021/12/19 02:33:30;;;;;;;;;;;20.00;44.00;;;;;;6257503;28;20428;-38
2021/12/19 02:36:50;;;;;;;;;;;19.90;43.80;;;;;;6257310;28;20593;-39
2021/12/19 02:40:21;;;;;;;;;;;19.60;43.70;;;;;;6255396;28;19928;-38
2021/12/19 02:49:50;;;;;;;;;;;20.00;43.90;;;;;;6259322;28;20436;-38
2021/12/19 02:52:53;;;;;;;;;;;19.90;43.90;;;;;;6256310;28;19972;-38
2021/12/19 02:55:54;;;;;;;;;;;19.80;43.90;;;;;;6237725;28;19929;-38
2021/12/19 02:58:55;;;;;;;;;;;19.80;43.80;;;;;;6252106;28;19971;-38
2021/12/19 03:01:57;;;;;;;;;;;19.80;44.00;;;;;;6258486;28;20458;-38
2021/12/19 03:05:00;;;;;;;;;;;20.00;44.00;;;;;;6258219;28;19928;-38
2021/12/19 03:08:02;;;;;;;;;;;19.70;43.80;;;;;;6240448;28;19928;-38
2021/12/19 03:20:50;;;;;;;;;;;19.70;43.70;;;;;;6255869;28;20268;-39
2021/12/19 03:23:52;;;;;;;;;;;19.80;43.80;;;;;;6258204;28;19964;-38
2021/12/19 03:26:53;;;;;;;;;;;20.30;44.20;;;;;;6252629;28;20719;-39
2021/12/19 03:29:55;;;;;;;;;;;20.00;43.90;;;;;;6258127;28;20392;-38
2021/12/19 03:32:57;;;;;;;;;;;19.70;43.90;;;;;;6248032;28;19929;-38
2021/12/19 03:35:58;;;;;;;;;;;20.00;44.00;;;;;;6239271;28;19935;-38
2021/12/19 03:39:04;;;;;;;;;;;19.60;44.00;;;;;;6259582;28;20011;-38
2021/12/19 03:42:06;;;;;;;;;;;19.90;44.00;;;;;;6257416;28;19983;-39
2021/12/19 03:45:08;;;;;;;;;;;20.10;43.90;;;;;;6254286;28;20268;-38
2021/12/19 03:48:12;;;;;;;;;;;19.90;43.90;;;;;;6255503;28;20340;-38
2021/12/19 03:51:14;;;;;;;;;;;19.90;43.90;;;;;;6260344;28;19928;-38
2021/12/19 03:54:17;;;;;;;;;;;20.00;44.10;;;;;;6263770;28;19928;-38
2021/12/19 03:57:18;;;;;;;;;;;19.80;43.90;;;;;;6257657;28;19967;-38
2021/12/19 04:00:24;;;;;;;;;;;19.80;43.80;;;;;;6261629;28;19974;-39
2021/12/19 04:03:25;;;;;;;;;;;19.70;43.90;;;;;;6240852;28;19963;-38
2021/12/19 04:06:27;;;;;;;;;;;19.80;44.00;;;;;;6259646;28;19924;-38
2021/12/19 04:09:30;;;;;;;;;;;19.60;43.90;;;;;;6260608;28;20343;-40
2021/12/19 04:12:32;;;;;;;;;;;20.00;44.10;;;;;;6243894;28;19935;-38
2021/12/19 04:15:33;;;;;;;;;;;20.20;44.20;;;;;;6262434;28;19924;-38
2021/12/19 04:18:35;;;;;;;;;;;19.60;43.90;;;;;;6263106;28;20585;-38
2021/12/19 04:21:36;;;;;;;;;;;19.40;43.90;;;;;;6260911;28;20027;-38
2021/12/19 04:24:38;;;;;;;;;;;20.00;44.10;;;;;;6257952;28;19928;-38
2021/12/19 04:27:40;;;;;;;;;;;19.70;44.00;;;;;;6262483;28;20054;-40
2021/12/19 04:30:41;;;;;;;;;;;20.00;43.90;;;;;;6262031;28;20043;-39
2021/12/19 04:33:43;;;;;;;;;;;19.50;43.80;;;;;;6264001;28;19940;-38
2021/12/19 04:36:48;;;;;;;;;;;19.60;43.90;;;;;;6263507;28;20269;-38
2021/12/19 04:39:56;;;;;;;;;;;19.70;43.70;;;;;;6262862;28;20094;-38
2021/12/19 04:53:05;;;;;;;;;;;19.80;43.90;;;;;;6262290;28;20067;-38
2021/12/19 04:59:49;;;;;;;;;;;19.60;44.00;;;;;;6241629;28;19975;-38
2021/12/19 05:02:55;;;;;;;;;;;19.70;43.90;;;;;;6254535;28;19929;-38
2021/12/19 05:06:03;;;;;;;;;;;19.80;44.10;;;;;;6259988;28;20216;-38
2021/12/19 05:15:37;;;;;;;;;;;20.00;44.20;;;;;;6259567;28;20425;-38
2021/12/19 05:18:40;;;;;;;;;;;19.90;43.90;;;;;;6235413;28;19997;-39
2021/12/19 05:21:42;;;;;;;;;;;20.00;44.20;;;;;;6256582;28;19928;-38
2021/12/19 05:24:48;;;;;;;;;;;19.70;44.10;;;;;;6255623;28;20683;-38
2021/12/19 05:27:51;;;;;;;;;;;19.70;43.90;;;;;;6256049;28;19930;-38
2021/12/19 05:30:53;;;;;;;;;;;19.70;43.40;;;;;;6255182;28;19943;-38
2021/12/19 05:33:54;;;;;;;;;;;20.00;44.10;;;;;;6256438;28;20337;-38
2021/12/19 05:46:41;;;;;;;;;;;20.00;44.20;;;;;;6254681;28;20552;-38
2021/12/19 05:49:42;;;;;;;;;;;19.90;44.10;;;;;;6256236;28;19929;-38
2021/12/19 05:52:44;;;;;;;;;;;19.60;44.10;;;;;;6255235;28;20974;-38
2021/12/19 05:55:46;;;;;;;;;;;19.50;43.90;;;;;;6252844;28;20271;-38
2021/12/19 05:58:48;;;;;;;;;;;19.60;44.00;;;;;;6249441;28;20102;-38
2021/12/19 06:01:49;;;;;;;;;;;19.60;44.00;;;;;;6251810;28;20133;-39
2021/12/19 06:04:50;;;;;;;;;;;20.00;44.20;;;;;;6251353;28;20137;-38
2021/12/19 06:07:52;;;;;;;;;;;19.60;44.10;;;;;;6252276;28;20359;-38
2021/12/19 06:10:53;;;;;;;;;;;19.70;44.20;;;;;;6253833;28;20125;-38
2021/12/19 06:13:55;;;;;;;;;;;19.60;44.10;;;;;;6248813;28;19938;-38
2021/12/19 06:16:58;;;;;;;;;;;19.80;44.10;;;;;;6256141;28;19924;-38
2021/12/19 06:19:59;;;;;;;;;;;20.10;44.10;;;;;;6252107;28;20834;-38
2021/12/19 06:23:00;;;;;;;;;;;19.50;44.20;;;;;;6253556;28;19971;-38
2021/12/19 06:26:02;;;;;;;;;;;19.50;44.00;;;;;;6235480;28;19989;-38
2021/12/19 06:29:06;;;;;;;;;;;19.40;43.90;;;;;;6251678;28;20299;-38
2021/12/19 06:32:07;;;;;;;;;;;19.80;44.20;;;;;;6253961;28;20065;-38
2021/12/19 06:35:17;;;;;;;;;;;19.70;44.20;;;;;;6250800;28;20031;-39
2021/12/19 06:38:18;;;;;;;;;;;19.60;44.00;;;;;;6236474;28;20318;-38
2021/12/19 06:41:19;;;;;;;;;;;19.40;44.00;;;;;;6255718;28;19928;-38
2021/12/19 06:44:22;;;;;;;;;;;19.50;44.10;;;;;;6251301;28;19928;-38
2021/12/19 06:47:24;;;;;;;;;;;19.80;44.20;;;;;;6254669;28;20130;-38
2021/12/19 06:50:26;;;;;;;;;;;19.50;43.90;;;;;;6253760;28;20681;-38
2021/12/19 06:53:27;;;;;;;;;;;19.70;44.20;;;;;;6256433;28;20038;-38
2021/12/19 06:56:29;;;;;;;;;;;19.60;44.10;;;;;;6254515;28;20231;-38
2021/12/19 06:59:31;;;;;;;;;;;19.70;44.10;;;;;;6248545;28;20425;-38
2021/12/19 07:02:33;;;;;;;;;;;19.60;44.70;;;;;;6229753;28;20330;-38
2021/12/19 07:05:34;;;;;;;;;;;19.60;44.00;;;;;;6232739;28;20222;-38
2021/12/19 07:08:36;;;;;;;;;;;19.60;44.10;;;;;;6230783;28;20031;-38
2021/12/19 07:11:37;;;;;;;;;;;19.90;44.30;;;;;;6226838;28;20562;-38
2021/12/19 07:14:39;;;;;;;;;;;19.50;44.00;;;;;;6229778;28;19936;-38
2021/12/19 07:17:41;;;;;;;;;;;20.10;44.30;;;;;;6235206;28;20803;-38
2021/12/19 07:20:43;;;;;;;;;;;20.10;44.30;;;;;;6232771;28;19935;-38
2021/12/19 07:23:44;;;;;;;;;;;19.90;44.30;;;;;;6236196;28;19934;-41
2021/12/19 07:26:45;;;;;;;;;;;19.70;44.10;;;;;;6238653;28;20189;-38
2021/12/19 07:29:48;;;;;;;;;;;19.50;44.10;;;;;;6239618;28;20322;-38
2021/12/19 07:32:49;;;;;;;;;;;19.60;44.00;;;;;;6239941;28;19933;-38
2021/12/19 07:35:55;;;;;;;;;;;19.90;44.10;;;;;;6239026;28;20047;-38
2021/12/19 07:39:03;;;;;;;;;;;19.70;44.20;;;;;;6240498;28;20337;-38
2021/12/19 07:42:06;;;;;;;;;;;19.90;44.20;;;;;;6235656;28;19932;-38
2021/12/19 07:45:10;;;;;;;;;;;19.50;43.90;;;;;;6234004;28;20392;-38
2021/12/19 07:48:13;;;;;;;;;;;19.80;44.10;;;;;;6233904;28;20494;-39
2021/12/19 07:51:14;;;;;;;;;;;20.40;44.40;;;;;;6235595;28;20416;-38
2021/12/19 07:54:16;;;;;;;;;;;19.50;44.10;;;;;;6233450;28;19924;-38
2021/12/19 07:57:17;;;;;;;;;;;19.80;44.90;;;;;;6220474;28;20039;-38
2021/12/19 08:00:20;;;;;;;;;;;19.90;44.30;;;;;;6236663;28;19928;-38
2021/12/19 08:03:22;;;;;;;;;;;19.80;44.10;;;;;;6226151;28;20432;-38
2021/12/19 08:06:23;;;;;;;;;;;19.70;44.10;;;;;;6227046;28;20538;-38
2021/12/19 08:09:36;;;;;;;;;;;19.70;44.20;;;;;;6222295;28;20131;-39
2021/12/19 08:12:37;;;;;;;;;;;19.80;43.30;;;;;;6228649;28;20111;-38
2021/12/19 08:15:39;;;;;;;;;;;19.60;44.10;;;;;;6229922;28;20249;-39
2021/12/19 08:18:41;;;;;;;;;;;20.00;44.30;;;;;;6232699;28;20244;-39
2021/12/19 08:21:42;;;;;;;;;;;20.10;44.40;;;;;;6232067;28;19999;-39
2021/12/19 08:24:45;;;;;;;;;;;20.00;44.40;;;;;;6232679;28;20084;-38
2021/12/19 08:27:46;;;;;;;;;;;19.80;44.20;;;;;;6236985;28;20002;-38
2021/12/19 08:30:49;;;;;;;;;;;19.80;44.20;;;;;;6232247;28;19996;-38
2021/12/19 08:33:50;;;;;;;;;;;20.10;43.70;;;;;;6232241;28;19964;-38
2021/12/19 08:36:52;;;;;;;;;;;19.80;44.00;;;;;;6228828;28;20403;-38
2021/12/19 08:39:53;;;;;;;;;;;19.60;44.20;;;;;;6235352;28;20214;-38
2021/12/19 08:42:54;;;;;;;;;;;20.00;44.30;;;;;;6228570;28;20460;-39
2021/12/19 08:45:57;;;;;;;;;;;19.50;44.10;;;;;;6233200;28;20293;-39
2021/12/19 08:48:58;;;;;;;;;;;19.90;44.20;;;;;;6229605;28;20035;-39
2021/12/19 08:52:00;;;;;;;;;;;20.20;44.40;;;;;;6198974;28;20508;-38
2021/12/19 08:55:01;;;;;;;;;;;19.60;44.10;;;;;;6227125;28;20287;-38
2021/12/19 08:58:03;;;;;;;;;;;19.50;44.10;;;;;;6226438;28;20186;-38
2021/12/19 09:01:05;;;;;;;;;;;19.90;44.40;;;;;;6232253;28;20039;-39
2021/12/19 09:04:06;;;;;;;;;;;19.50;44.10;;;;;;6234746;28;20127;-38
2021/12/19 09:07:08;;;;;;;;;;;20.00;44.40;;;;;;6232040;28;20407;-39
2021/12/19 09:10:10;;;;;;;;;;;19.60;44.20;;;;;;6232029;28;20042;-38
2021/12/19 09:13:11;;;;;;;;;;;19.90;44.30;;;;;;6227963;28;20119;-38
2021/12/19 09:16:13;;;;;;;;;;;19.50;44.30;;;;;;6235744;28;20321;-38
2021/12/19 09:19:15;;;;;;;;;;;20.00;44.30;;;;;;6232763;28;20750;-38
2021/12/19 09:22:16;;;;;;;;;;;20.00;44.20;;;;;;6213116;28;20550;-39
2021/12/19 09:25:19;;;;;;;;;;;20.10;44.20;;;;;;6231615;28;20324;-38
2021/12/19 09:28:20;;;;;;;;;;;19.50;43.90;;;;;;6229659;28;20392;-38
2021/12/19 09:31:22;;;;;;;;;;;19.70;43.80;;;;;;6228415;28;19942;-38
2021/12/19 09:34:24;;;;;;;;;;;19.70;43.90;;;;;;6230196;28;19929;-38
2021/12/19 09:37:27;;;;;;;;;;;20.30;43.90;;;;;;6234151;28;19924;-38
2021/12/19 09:40:32;;;;;;;;;;;20.40;44.10;;;;;;6214509;28;19924;-40
2021/12/19 09:43:41;;;;;;;;;;;20.20;43.80;;;;;;6224654;28;20174;-38
2021/12/19 09:46:44;;;;;;;;;;;20.00;43.70;;;;;;6230050;28;20340;-38
2021/12/19 09:49:46;;;;;;;;;;;20.30;43.80;;;;;;6241331;28;20335;-38
2021/12/19 09:52:49;;;;;;;;;;;20.70;43.90;;;;;;6230734;28;19990;-38
2021/12/19 09:55:51;;;;;;;;;;;19.80;43.30;;;;;;6227493;28;20337;-39
2021/12/19 09:58:53;;;;;;;;;;;20.00;43.50;;;;;;6229384;28;20481;-38
2021/12/19 10:01:55;;;;;;;;;;;20.70;43.90;;;;;;6230333;28;20579;-38
2021/12/19 10:04:56;;;;;;;;;;;20.20;43.40;;;;;;6232967;28;20175;-38
2021/12/19 10:08:00;;;;;;;;;;;20.10;43.30;;;;;;6230726;28;20090;-38
2021/12/19 10:11:03;;;;;;;;;;;20.60;43.50;;;;;;6213846;28;20451;-38
2021/12/19 10:14:21;;;;;;;;;;;20.10;43.20;;;;;;6234316;28;19924;-39
2021/12/19 10:17:23;;;;;;;;;;;20.90;43.60;;;;;;6233756;28;20804;-38
2021/12/19 10:20:25;;;;;;;;;;;20.40;43.30;;;;;;6226959;28;20208;-39
2021/12/19 10:23:28;;;;;;;;;;;21.10;43.80;;;;;;6209509;28;19928;-39
2021/12/19 10:26:39;;;;;;;;;;;20.60;43.40;;;;;;6224660;28;20287;-38
2021/12/19 10:29:41;;;;;;;;;;;20.40;43.10;;;;;;6214776;28;20452;-40
2021/12/19 10:32:57;;;;;;;;;;;20.30;43.10;;;;;;6229232;28;19935;-38
2021/12/19 10:36:00;;;;;;;;;;;20.60;43.20;;;;;;6204232;28;20576;-38
2021/12/19 10:39:02;;;;;;;;;;;20.50;43.20;;;;;;6212789;28;19932;-38
2021/12/19 10:42:04;;;;;;;;;;;20.40;43.20;;;;;;6226553;28;20459;-39
2021/12/19 10:48:22;;;;;;;;;;;20.50;43.10;;;;;;6233112;28;19932;-38
2021/12/19 10:51:25;;;;;;;;;;;20.40;42.90;;;;;;6229793;28;20018;-39
2021/12/19 10:54:26;;;;;;;;;;;21.30;43.50;;;;;;6234630;28;20338;-38
2021/12/19 10:57:31;;;;;;;;;;;21.00;43.40;;;;;;6228551;28;19971;-38
2021/12/19 11:00:39;;;;;;;;;;;20.60;43.00;;;;;;6212594;28;20211;-38
2021/12/19 11:03:43;;;;;;;;;;;20.40;43.10;;;;;;6227924;28;20230;-39
2021/12/19 11:06:46;;;;;;;;;;;20.50;42.80;;;;;;6232130;28;20050;-38
2021/12/19 11:09:47;;;;;;;;;;;21.00;43.30;;;;;;6230728;28;20466;-38
2021/12/19 11:13:05;;;;;;;;;;;20.40;43.00;;;;;;6229171;28;19931;-38
2021/12/19 11:16:06;;;;;;;;;;;20.70;42.90;;;;;;6233159;28;19934;-38
2021/12/19 11:19:08;;;;;;;;;;;20.70;43.10;;;;;;6231047;28;20729;-39
2021/12/19 11:22:10;;;;;;;;;;;21.00;43.10;;;;;;6231449;28;20051;-39
2021/12/19 11:25:12;;;;;;;;;;;21.40;43.20;;;;;;6229539;28;20567;-38
2021/12/19 11:28:17;;;;;;;;;;;20.90;43.00;;;;;;6205870;28;19929;-39
2021/12/19 11:31:19;;;;;;;;;;;20.70;42.90;;;;;;6231117;28;20051;-39
2021/12/19 11:34:24;;;;;;;;;;;21.00;43.00;;;;;;6233346;28;20229;-38
2021/12/19 11:37:27;;;;;;;;;;;20.80;42.20;;;;;;6230130;28;20186;-39
2021/12/19 11:40:31;;;;;;;;;;;21.00;43.10;;;;;;6232676;28;19962;-39
2021/12/19 11:43:35;;;;;;;;;;;20.60;42.60;;;;;;6232901;28;19954;-38
2021/12/19 11:46:44;;;;;;;;;;;20.90;42.80;;;;;;6215760;28;20632;-39
2021/12/19 11:50:08;;;;;;;;;;;20.80;42.70;;;;;;6217224;28;20217;-39
2021/12/19 11:53:25;;;;;;;;;;;20.90;42.80;;;;;;6216004;28;19924;-38
2021/12/19 11:56:27;;;;;;;;;;;21.40;43.10;;;;;;6215623;28;19986;-38
2021/12/19 11:59:28;;;;;;;;;;;20.80;42.90;;;;;;6232573;28;19981;-38
2021/12/19 12:02:30;;;;;;;;;;;21.00;43.00;;;;;;6234325;28;20100;-38
2021/12/19 12:05:33;;;;;;;;;;;20.90;42.90;;;;;;6234058;28;20033;-39
2021/12/19 12:08:34;;;;;;;;;;;20.90;42.80;;;;;;6238149;28;20233;-38
2021/12/19 12:11:37;;;;;;;;;;;20.90;42.80;;;;;;6231135;28;20719;-38
2021/12/19 12:14:41;;;;;;;;;;;20.90;42.80;;;;;;6232162;28;20220;-38
2021/12/19 12:17:51;;;;;;;;;;;21.30;42.90;;;;;;6216381;28;19928;-39
2021/12/19 12:20:52;;;;;;;;;;;20.90;42.70;;;;;;6237757;28;20238;-38
2021/12/19 12:23:56;;;;;;;;;;;20.90;42.90;;;;;;6238473;28;19931;-38
2021/12/19 12:27:03;;;;;;;;;;;21.00;42.80;;;;;;6234385;28;19967;-38
2021/12/19 12:30:05;;;;;;;;;;;20.90;42.80;;;;;;6226424;28;20826;-38
2021/12/19 12:33:08;;;;;;;;;;;20.80;42.70;;;;;;6234208;28;19973;-39
2021/12/19 12:36:10;;;;;;;;;;;21.10;42.90;;;;;;6217983;28;20300;-38
2021/12/19 12:39:15;;;;;;;;;;;20.90;42.90;;;;;;6236900;28;20037;-39
2021/12/19 12:42:18;;;;;;;;;;;21.00;42.70;;;;;;6234645;28;20047;-38
2021/12/19 12:45:19;;;;;;;;;;;21.00;42.80;;;;;;6234997;28;20978;-38
2021/12/19 12:48:29;;;;;;;;;;;21.30;43.00;;;;;;6231506;28;19936;-39
2021/12/19 12:51:32;;;;;;;;;;;20.90;42.50;;;;;;6233635;28;20447;-38
2021/12/19 12:54:36;;;;;;;;;;;21.10;42.70;;;;;;6216307;28;20236;-38
2021/12/19 12:57:40;;;;;;;;;;;21.10;42.60;;;;;;6229095;28;19928;-38
2021/12/19 13:00:44;;;;;;;;;;;21.10;42.80;;;;;;6228412;28;19928;-38
2021/12/19 13:04:00;;;;;;;;;;;21.00;42.70;;;;;;6222762;28;19994;-39
2021/12/19 13:07:04;;;;;;;;;;;21.20;42.70;;;;;;6207311;28;20394;-38
2021/12/19 13:10:06;;;;;;;;;;;21.10;42.60;;;;;;6227815;28;19928;-38
2021/12/19 13:13:08;;;;;;;;;;;20.80;42.50;;;;;;6233894;28;20351;-39
2021/12/19 13:16:10;;;;;;;;;;;21.10;42.80;;;;;;6226264;28;20724;-38
2021/12/19 13:19:30;;;;;;;;;;;21.30;42.80;;;;;;6228220;28;19993;-38
2021/12/19 13:22:33;;;;;;;;;;;21.30;42.70;;;;;;6228250;28;19928;-38
2021/12/19 13:25:39;;;;;;;;;;;20.90;42.50;;;;;;6210400;28;19924;-38
2021/12/19 13:28:41;;;;;;;;;;;21.40;42.70;;;;;;6228781;28;20386;-38
2021/12/19 13:31:42;;;;;;;;;;;21.20;42.80;;;;;;6230426;28;20438;-40
2021/12/19 13:34:44;;;;;;;;;;;21.10;42.80;;;;;;6230578;28;20044;-39
2021/12/19 13:37:46;;;;;;;;;;;21.60;42.90;;;;;;6232333;28;19928;-38
2021/12/19 13:40:48;;;;;;;;;;;21.40;42.60;;;;;;6231459;28;20031;-38
2021/12/19 13:43:52;;;;;;;;;;;21.20;42.50;;;;;;6211528;28;20159;-39
2021/12/19 13:46:53;;;;;;;;;;;21.00;42.70;;;;;;6226201;28;20444;-38
2021/12/19 13:49:54;;;;;;;;;;;21.00;42.70;;;;;;6228861;28;19931;-41
2021/12/19 13:52:56;;;;;;;;;;;21.00;42.60;;;;;;6229738;28;20449;-39
2021/12/19 13:55:59;;;;;;;;;;;21.00;42.70;;;;;;6225352;28;21044;-38
2021/12/19 13:59:02;;;;;;;;;;;21.70;42.90;;;;;;6225675;28;20011;-39
2021/12/19 14:02:09;;;;;;;;;;;20.80;42.50;;;;;;6224725;28;20043;-38
2021/12/19 14:05:25;;;;;;;;;;;21.50;42.70;;;;;;6216800;28;19977;-38
2021/12/19 14:08:28;;;;;;;;;;;21.10;42.50;;;;;;6242688;28;20267;-39
2021/12/19 14:11:30;;;;;;;;;;;21.30;42.50;;;;;;6226534;28;19928;-38
2021/12/19 14:14:32;;;;;;;;;;;21.30;42.70;;;;;;6225431;28;20539;-38
2021/12/19 14:17:33;;;;;;;;;;;21.20;42.60;;;;;;6227823;28;20045;-38
2021/12/19 14:20:35;;;;;;;;;;;21.00;41.90;;;;;;6227902;28;20019;-38
2021/12/19 14:23:37;;;;;;;;;;;21.60;42.80;;;;;;6210689;28;19960;-39
2021/12/19 14:26:39;;;;;;;;;;;21.60;42.80;;;;;;6228806;28;19928;-38
2021/12/19 14:29:45;;;;;;;;;;;21.70;42.80;;;;;;6229027;28;20531;-38
2021/12/19 14:32:47;;;;;;;;;;;21.40;42.60;;;;;;6229625;28;19993;-38
2021/12/19 14:35:51;;;;;;;;;;;21.10;42.50;;;;;;6207581;28;20315;-39
2021/12/19 14:38:59;;;;;;;;;;;21.30;42.60;;;;;;6226020;28;20775;-38
2021/12/19 14:42:06;;;;;;;;;;;21.70;42.20;;;;;;6227102;28;19928;-38
2021/12/19 14:45:09;;;;;;;;;;;21.50;42.60;;;;;;6225308;28;20145;-39
2021/12/19 14:48:14;;;;;;;;;;;21.20;42.60;;;;;;6213204;28;20085;-39
2021/12/19 14:51:23;;;;;;;;;;;21.40;42.70;;;;;;6230209;28;20268;-38
2021/12/19 14:54:24;;;;;;;;;;;21.20;42.50;;;;;;6205798;28;19932;-38
2021/12/19 14:57:26;;;;;;;;;;;21.20;42.70;;;;;;6224150;28;19998;-38
2021/12/19 15:00:28;;;;;;;;;;;21.60;43.00;;;;;;6223237;28;19932;-38
2021/12/19 15:03:30;;;;;;;;;;;21.60;42.90;;;;;;6220502;28;19925;-38
2021/12/19 15:06:37;;;;;;;;;;;21.30;42.80;;;;;;6224692;28;20369;-40
2021/12/19 15:09:39;;;;;;;;;;;21.40;42.70;;;;;;6228048;28;20160;-38
2021/12/19 15:12:40;;;;;;;;;;;21.90;43.00;;;;;;6223716;28;19928;-38
2021/12/19 15:15:42;;;;;;;;;;;21.40;42.60;;;;;;6211224;28;20076;-38
2021/12/19 15:18:49;;;;;;;;;;;21.50;42.80;;;;;;6228129;28;20582;-38
2021/12/19 15:21:50;;;;;;;;;;;21.60;43.00;;;;;;6229620;28;19931;-39
2021/12/19 15:24:54;;;;;;;;;;;21.40;42.70;;;;;;6233565;28;20920;-39
2021/12/19 15:27:56;;;;;;;;;;;21.50;42.80;;;;;;6226220;28;20191;-38
2021/12/19 15:30:58;;;;;;;;;;;22.10;43.10;;;;;;6222322;28;19994;-39
2021/12/19 15:34:00;;;;;;;;;;;21.30;42.70;;;;;;6223272;28;19964;-38
2021/12/19 15:37:02;;;;;;;;;;;21.20;42.70;;;;;;6231934;28;20490;-38
2021/12/19 15:40:04;;;;;;;;;;;21.30;42.70;;;;;;6233264;28;20492;-39
2021/12/19 15:43:05;;;;;;;;;;;21.30;42.60;;;;;;6212334;28;20673;-39
2021/12/19 15:46:07;;;;;;;;;;;21.60;42.80;;;;;;6217534;28;19928;-39
2021/12/19 15:49:08;;;;;;;;;;;21.40;42.80;;;;;;6233647;28;20321;-38
2021/12/19 15:52:10;;;;;;;;;;;21.50;42.90;;;;;;6231911;28;20176;-39
2021/12/19 15:55:11;;;;;;;;;;;21.70;42.90;;;;;;6231893;28;20842;-38
2021/12/19 15:58:13;;;;;;;;;;;21.60;42.90;;;;;;6229932;28;19928;-38
2021/12/19 16:01:15;;;;;;;;;;;21.70;42.80;;;;;;6230377;28;19971;-40
2021/12/19 16:04:17;;;;;;;;;;;21.20;42.70;;;;;;6228372;28;20001;-38
2021/12/19 16:07:19;;;;;;;;;;;21.30;42.70;;;;;;6226432;28;19935;-38
2021/12/19 16:10:20;;;;;;;;;;;21.40;42.80;;;;;;6232773;28;20605;-39
2021/12/19 16:13:25;;;;;;;;;;;21.20;42.60;;;;;;6233909;28;20471;-38
2021/12/19 16:16:28;;;;;;;;;;;21.20;42.60;;;;;;6231133;28;20542;-39
2021/12/19 16:19:29;;;;;;;;;;;21.30;42.60;;;;;;6227879;28;20046;-38
2021/12/19 16:22:30;;;;;;;;;;;21.20;42.60;;;;;;6210038;28;19931;-38
2021/12/19 16:25:32;;;;;;;;;;;21.50;42.80;;;;;;6229029;28;20470;-39
2021/12/19 16:28:33;;;;;;;;;;;21.30;42.80;;;;;;6230063;28;20296;-39
2021/12/19 16:31:35;;;;;;;;;;;22.10;43.10;;;;;;6215040;28;19928;-38
2021/12/19 16:34:37;;;;;;;;;;;21.40;42.70;;;;;;6194108;28;20251;-38
2021/12/19 16:37:38;;;;;;;;;;;21.40;42.70;;;;;;6218547;28;20359;-38
2021/12/19 16:40:42;;;;;;;;;;;21.50;42.80;;;;;;6226778;28;19934;-39
2021/12/19 16:43:43;;;;;;;;;;;20.90;42.50;;;;;;6221756;28;20238;-38
2021/12/19 16:46:46;;;;;;;;;;;21.70;43.00;;;;;;6234072;28;20410;-39
2021/12/19 16:49:47;;;;;;;;;;;21.30;42.70;;;;;;6230271;28;20094;-38
2021/12/19 16:52:49;;;;;;;;;;;21.80;43.00;;;;;;6227481;28;20199;-38
2021/12/19 16:55:50;;;;;;;;;;;21.30;42.80;;;;;;6230187;28;20512;-38
2021/12/19 16:58:51;;;;;;;;;;;21.40;42.90;;;;;;6228885;28;20221;-39
2021/12/19 17:01:53;;;;;;;;;;;21.70;43.10;;;;;;6229344;28;19975;-39
2021/12/19 17:04:55;;;;;;;;;;;21.00;42.50;;;;;;6225591;28;19929;-39
2021/12/19 17:07:57;;;;;;;;;;;21.30;42.40;;;;;;6226240;28;21046;-38
2021/12/19 17:10:59;;;;;;;;;;;21.50;42.80;;;;;;6210919;28;20215;-38
2021/12/19 17:14:11;;;;;;;;;;;21.30;42.70;;;;;;6227936;28;20773;-39
2021/12/19 17:17:13;;;;;;;;;;;21.10;42.60;;;;;;6225294;28;20691;-38
2021/12/19 17:20:15;;;;;;;;;;;21.00;42.60;;;;;;6221849;28;20287;-39
2021/12/19 17:23:16;;;;;;;;;;;21.20;42.10;;;;;;6226946;28;21842;-38
2021/12/19 17:26:20;;;;;;;;;;;21.10;42.80;;;;;;6211490;28;20064;-38
2021/12/19 17:29:21;;;;;;;;;;;21.50;43.20;;;;;;6218550;28;20204;-39
2021/12/19 17:32:23;;;;;;;;;;;21.70;43.20;;;;;;6224001;28;19935;-38
2021/12/19 17:35:25;;;;;;;;;;;21.30;43.10;;;;;;6223103;28;19955;-38
2021/12/19 17:38:26;;;;;;;;;;;21.00;43.00;;;;;;6218261;28;20079;-38
2021/12/19 17:41:30;;;;;;;;;;;20.90;42.90;;;;;;6227795;28;20327;-39
2021/12/19 17:44:31;;;;;;;;;;;21.60;42.60;;;;;;6224534;28;20424;-38
2021/12/19 17:47:33;;;;;;;;;;;21.20;43.20;;;;;;6230826;28;19951;-39
2021/12/19 17:50:35;;;;;;;;;;;21.00;43.10;;;;;;6233746;28;20329;-38
2021/12/19 17:53:36;;;;;;;;;;;21.10;43.20;;;;;;6228921;28;19932;-38
2021/12/19 17:56:38;;;;;;;;;;;21.10;43.10;;;;;;6231789;28;19930;-38
2021/12/19 17:59:39;;;;;;;;;;;20.90;43.10;;;;;;6225045;28;20236;-39
2021/12/19 18:02:42;;;;;;;;;;;21.70;43.60;;;;;;6217557;28;19982;-39
2021/12/19 18:05:46;;;;;;;;;;;20.80;43.20;;;;;;6222921;28;20203;-39
2021/12/19 18:08:47;;;;;;;;;;;20.90;43.30;;;;;;6226751;28;20430;-38
2021/12/19 18:11:48;;;;;;;;;;;21.30;43.60;;;;;;6224572;28;19935;-39
2021/12/19 18:14:50;;;;;;;;;;;20.70;43.30;;;;;;6224938;28;20426;-38
2021/12/19 18:17:52;;;;;;;;;;;20.70;43.40;;;;;;6213097;28;20363;-39
2021/12/19 18:20:54;;;;;;;;;;;20.80;43.50;;;;;;6227700;28;20159;-39
2021/12/19 18:23:58;;;;;;;;;;;20.80;43.40;;;;;;6228565;28;20477;-38
2021/12/19 18:27:01;;;;;;;;;;;20.70;43.20;;;;;;6237122;28;19921;-38
2021/12/19 18:30:03;;;;;;;;;;;21.00;43.50;;;;;;6232796;28;20042;-39
2021/12/19 18:33:05;;;;;;;;;;;21.20;43.60;;;;;;6245472;28;20575;-39
2021/12/19 18:36:11;;;;;;;;;;;20.80;43.50;;;;;;6244071;28;19931;-38